sensor_id;sensor_type;location;lat;lon;timestamp;temperature;humidity
4207;DHT22;2117;47.972;7.830;2023-07-16T01:00:43;18.00;99.90
4207;DHT22;2117;47.972;7.830;2023-07-16T01:03:11;18.00;99.90
4207;DHT22;2117;47.972;7.830;2023-07-16T01:06:01;17.90;99.90
4207;DHT22;2117;47.972;7.830;2023-07-16T01:10:56;17.90;99.90
4207;DHT22;2117;47.972;7.830;2023-07-16T01:13:23;17.90;99.90
4207;DHT22;2117;47.972;7.830;2023-07-16T01:15:49;18.00;99.90
4207;DHT22;2117;47.972;7.830;2023-07-16T01:18:14;17.90;99.90
4207;DHT22;2117;47.972;7.830;2023-07-16T01:20:40;17.80;99.90
4207;DHT22;2117;47.972;7.830;2023-07-16T01:26:19;17.80;99.90
4207;DHT22;2117;47.972;7.830;2023-07-16T01:31:29;17.80;99.90
4207;DHT22;2117;47.972;7.830;2023-07-16T01:33:55;17.70;99.90
4207;DHT22;2117;47.972;7.830;2023-07-16T01:36:21;17.70;99.90
4207;DHT22;2117;47.972;7.830;2023-07-16T01:38:47;17.70;99.90
4207;DHT22;2117;47.972;7.830;2023-07-16T01:41:13;17.70;99.90
4207;DHT22;2117;47.972;7.830;2023-07-16T01:43:39;17.60;99.90
4207;DHT22;2117;47.972;7.830;2023-07-16T01:46:04;17.60;99.90
4207;DHT22;2117;47.972;7.830;2023-07-16T01:48:33;17.60;99.90
4207;DHT22;2117;47.972;7.830;2023-07-16T01:50:59;17.60;99.90
4207;DHT22;2117;47.972;7.830;2023-07-16T01:53:24;17.50;99.90
4207;DHT22;2117;47.972;7.830;2023-07-16T01:55:50;17.50;99.90
4207;DHT22;2117;47.972;7.830;2023-07-16T01:58:15;17.50;99.90
4207;DHT22;2117;47.972;7.830;2023-07-16T02:00:41;17.50;99.90
4207;DHT22;2117;47.972;7.830;2023-07-16T02:03:07;17.40;99.90
4207;DHT22;2117;47.972;7.830;2023-07-16T02:05:32;17.40;99.90
4207;DHT22;2117;47.972;7.830;2023-07-16T02:07:58;17.40;99.90
4207;DHT22;2117;47.972;7.830;2023-07-16T02:10:24;17.30;99.90
4207;DHT22;2117;47.972;7.830;2023-07-16T02:12:49;17.30;99.90
4207;DHT22;2117;47.972;7.830;2023-07-16T02:17:41;17.20;99.90
4207;DHT22;2117;47.972;7.830;2023-07-16T02:20:07;17.20;99.90
4207;DHT22;2117;47.972;7.830;2023-07-16T02:22:34;17.10;99.90
4207;DHT22;2117;47.972;7.830;2023-07-16T02:25:00;17.10;99.90
4207;DHT22;2117;47.972;7.830;2023-07-16T02:27:26;17.10;99.90
4207;DHT22;2117;47.972;7.830;2023-07-16T02:29:52;17.10;99.90
4207;DHT22;2117;47.972;7.830;2023-07-16T02:32:17;17.10;99.90
4207;DHT22;2117;47.972;7.830;2023-07-16T02:34:43;17.10;99.90
4207;DHT22;2117;47.972;7.830;2023-07-16T02:37:09;17.10;99.90
4207;DHT22;2117;47.972;7.830;2023-07-16T02:39:34;17.10;99.90
4207;DHT22;2117;47.972;7.830;2023-07-16T02:42:00;17.10;99.90
4207;DHT22;2117;47.972;7.830;2023-07-16T02:44:25;17.10;99.90
4207;DHT22;2117;47.972;7.830;2023-07-16T02:46:51;17.10;99.90
4207;DHT22;2117;47.972;7.830;2023-07-16T02:49:16;17.10;99.90
4207;DHT22;2117;47.972;7.830;2023-07-16T02:51:42;17.10;99.90
4207;DHT22;2117;47.972;7.830;2023-07-16T02:54:07;17.10;99.90
4207;DHT22;2117;47.972;7.830;2023-07-16T02:56:34;17.10;99.90
4207;DHT22;2117;47.972;7.830;2023-07-16T02:58:59;17.10;99.90
4207;DHT22;2117;47.972;7.830;2023-07-16T03:01:25;17.20;99.90
4207;DHT22;2117;47.972;7.830;2023-07-16T03:03:51;17.20;99.90
4207;DHT22;2117;47.972;7.830;2023-07-16T03:06:16;17.20;99.90
4207;DHT22;2117;47.972;7.830;2023-07-16T03:08:42;17.20;99.90
4207;DHT22;2117;47.972;7.830;2023-07-16T03:11:07;17.10;99.90
4207;DHT22;2117;47.972;7.830;2023-07-16T03:13:33;17.10;99.90
4207;DHT22;2117;47.972;7.830;2023-07-16T03:15:58;17.10;99.90
4207;DHT22;2117;47.972;7.830;2023-07-16T03:18:28;17.10;99.90
4207;DHT22;2117;47.972;7.830;2023-07-16T03:20:55;17.00;99.90
4207;DHT22;2117;47.972;7.830;2023-07-16T03:23:20;17.00;99.90
4207;DHT22;2117;47.972;7.830;2023-07-16T03:25:46;17.00;99.90
4207;DHT22;2117;47.972;7.830;2023-07-16T03:28:11;17.00;99.90
4207;DHT22;2117;47.972;7.830;2023-07-16T03:30:37;16.90;99.90
4207;DHT22;2117;47.972;7.830;2023-07-16T03:33:03;17.00;99.90
4207;DHT22;2117;47.972;7.830;2023-07-16T03:35:29;17.00;99.90
4207;DHT22;2117;47.972;7.830;2023-07-16T03:37:55;16.90;99.90
4207;DHT22;2117;47.972;7.830;2023-07-16T03:40:24;16.90;99.90
4207;DHT22;2117;47.972;7.830;2023-07-16T03:42:50;16.90;99.90
4207;DHT22;2117;47.972;7.830;2023-07-16T03:45:15;16.90;99.90
4207;DHT22;2117;47.972;7.830;2023-07-16T03:47:41;16.90;99.90
4207;DHT22;2117;47.972;7.830;2023-07-16T03:50:07;16.90;99.90
4207;DHT22;2117;47.972;7.830;2023-07-16T03:52:32;16.90;99.90
4207;DHT22;2117;47.972;7.830;2023-07-16T03:54:58;16.90;99.90
4207;DHT22;2117;47.972;7.830;2023-07-16T03:57:23;16.90;99.90
4207;DHT22;2117;47.972;7.830;2023-07-16T03:59:49;16.90;99.90
4207;DHT22;2117;47.972;7.830;2023-07-16T04:02:14;16.90;99.90
4207;DHT22;2117;47.972;7.830;2023-07-16T04:04:40;16.90;99.90
4207;DHT22;2117;47.972;7.830;2023-07-16T04:07:06;16.90;99.90
4207;DHT22;2117;47.972;7.830;2023-07-16T04:09:31;16.90;99.90
4207;DHT22;2117;47.972;7.830;2023-07-16T04:11:57;16.90;99.90
4207;DHT22;2117;47.972;7.830;2023-07-16T04:14:22;16.80;99.90
4207;DHT22;2117;47.972;7.830;2023-07-16T04:16:48;16.90;99.90
4207;DHT22;2117;47.972;7.830;2023-07-16T04:19:13;16.90;99.90
4207;DHT22;2117;47.972;7.830;2023-07-16T04:21:39;16.90;99.90
4207;DHT22;2117;47.972;7.830;2023-07-16T04:24:05;16.90;99.90
4207;DHT22;2117;47.972;7.830;2023-07-16T04:26:31;16.90;99.90
4207;DHT22;2117;47.972;7.830;2023-07-16T04:28:57;16.90;99.90
4207;DHT22;2117;47.972;7.830;2023-07-16T04:31:23;17.00;99.90
4207;DHT22;2117;47.972;7.830;2023-07-16T04:33:48;17.00;99.90
4207;DHT22;2117;47.972;7.830;2023-07-16T04:36:14;17.00;99.90
4207;DHT22;2117;47.972;7.830;2023-07-16T04:38:40;17.00;99.90
4207;DHT22;2117;47.972;7.830;2023-07-16T04:41:05;17.10;99.90
4207;DHT22;2117;47.972;7.830;2023-07-16T04:43:31;17.10;99.90
4207;DHT22;2117;47.972;7.830;2023-07-16T04:45:57;17.00;99.90
4207;DHT22;2117;47.972;7.830;2023-07-16T04:48:22;17.10;99.90
4207;DHT22;2117;47.972;7.830;2023-07-16T04:50:48;17.00;99.90
4207;DHT22;2117;47.972;7.830;2023-07-16T04:53:13;17.10;99.90
4207;DHT22;2117;47.972;7.830;2023-07-16T04:55:39;17.10;99.90
4207;DHT22;2117;47.972;7.830;2023-07-16T04:58:05;17.20;99.90
4207;DHT22;2117;47.972;7.830;2023-07-16T05:00:34;17.20;99.90
4207;DHT22;2117;47.972;7.830;2023-07-16T05:03:00;17.20;99.90
4207;DHT22;2117;47.972;7.830;2023-07-16T05:05:25;17.20;99.90
4207;DHT22;2117;47.972;7.830;2023-07-16T05:07:51;17.20;99.90
4207;DHT22;2117;47.972;7.830;2023-07-16T05:10:16;17.20;99.90
4207;DHT22;2117;47.972;7.830;2023-07-16T05:12:42;17.30;99.90
4207;DHT22;2117;47.972;7.830;2023-07-16T05:15:08;17.30;99.90
4207;DHT22;2117;47.972;7.830;2023-07-16T05:17:33;17.30;99.90
4207;DHT22;2117;47.972;7.830;2023-07-16T05:19:59;17.30;99.90
4207;DHT22;2117;47.972;7.830;2023-07-16T05:22:25;17.30;99.90
4207;DHT22;2117;47.972;7.830;2023-07-16T05:24:50;17.30;99.90
4207;DHT22;2117;47.972;7.830;2023-07-16T05:27:16;17.30;99.90
4207;DHT22;2117;47.972;7.830;2023-07-16T05:29:41;17.40;99.90
4207;DHT22;2117;47.972;7.830;2023-07-16T05:32:07;17.50;99.90
4207;DHT22;2117;47.972;7.830;2023-07-16T05:34:33;17.60;99.90
4207;DHT22;2117;47.972;7.830;2023-07-16T05:36:59;17.70;99.90
4207;DHT22;2117;47.972;7.830;2023-07-16T05:39:25;17.60;99.90
4207;DHT22;2117;47.972;7.830;2023-07-16T05:41:50;17.70;99.90
4207;DHT22;2117;47.972;7.830;2023-07-16T05:44:16;17.70;99.90
4207;DHT22;2117;47.972;7.830;2023-07-16T05:46:41;17.60;99.90
4207;DHT22;2117;47.972;7.830;2023-07-16T05:49:07;17.60;99.90
4207;DHT22;2117;47.972;7.830;2023-07-16T05:51:32;17.70;99.90
4207;DHT22;2117;47.972;7.830;2023-07-16T05:53:58;17.70;99.90
4207;DHT22;2117;47.972;7.830;2023-07-16T05:56:24;17.70;99.90
4207;DHT22;2117;47.972;7.830;2023-07-16T05:58:49;17.70;99.90
4207;DHT22;2117;47.972;7.830;2023-07-16T06:01:15;17.70;99.90
4207;DHT22;2117;47.972;7.830;2023-07-16T06:03:40;17.70;99.90
4207;DHT22;2117;47.972;7.830;2023-07-16T06:06:08;17.80;99.90
4207;DHT22;2117;47.972;7.830;2023-07-16T06:08:34;17.80;99.90
4207;DHT22;2117;47.972;7.830;2023-07-16T06:11:00;17.80;99.90
4207;DHT22;2117;47.972;7.830;2023-07-16T06:13:26;17.90;99.90
4207;DHT22;2117;47.972;7.830;2023-07-16T06:15:51;17.90;99.90
4207;DHT22;2117;47.972;7.830;2023-07-16T06:18:17;18.00;99.90
4207;DHT22;2117;47.972;7.830;2023-07-16T06:20:44;18.10;99.90
4207;DHT22;2117;47.972;7.830;2023-07-16T06:23:10;18.20;99.90
4207;DHT22;2117;47.972;7.830;2023-07-16T06:25:36;18.20;99.90
4207;DHT22;2117;47.972;7.830;2023-07-16T06:28:03;18.30;99.90
4207;DHT22;2117;47.972;7.830;2023-07-16T06:30:28;18.30;99.90
4207;DHT22;2117;47.972;7.830;2023-07-16T06:32:56;18.30;99.90
4207;DHT22;2117;47.972;7.830;2023-07-16T06:35:21;18.40;99.90
4207;DHT22;2117;47.972;7.830;2023-07-16T06:37:47;18.50;99.90
4207;DHT22;2117;47.972;7.830;2023-07-16T06:40:13;18.60;99.90
4207;DHT22;2117;47.972;7.830;2023-07-16T06:42:38;18.80;99.90
4207;DHT22;2117;47.972;7.830;2023-07-16T06:45:04;18.90;99.90
4207;DHT22;2117;47.972;7.830;2023-07-16T06:47:30;19.00;99.90
4207;DHT22;2117;47.972;7.830;2023-07-16T06:49:55;19.00;99.90
4207;DHT22;2117;47.972;7.830;2023-07-16T06:52:22;19.00;99.90
4207;DHT22;2117;47.972;7.830;2023-07-16T06:54:48;19.10;99.90
4207;DHT22;2117;47.972;7.830;2023-07-16T06:57:14;19.10;99.90
4207;DHT22;2117;47.972;7.830;2023-07-16T06:59:39;19.20;99.90
4207;DHT22;2117;47.972;7.830;2023-07-16T07:02:06;19.20;99.90
4207;DHT22;2117;47.972;7.830;2023-07-16T07:04:31;19.20;99.90
4207;DHT22;2117;47.972;7.830;2023-07-16T07:06:57;19.20;99.90
4207;DHT22;2117;47.972;7.830;2023-07-16T07:09:22;19.20;99.90
4207;DHT22;2117;47.972;7.830;2023-07-16T07:11:48;19.30;99.90
4207;DHT22;2117;47.972;7.830;2023-07-16T07:14:14;19.30;99.90
4207;DHT22;2117;47.972;7.830;2023-07-16T07:16:39;19.40;99.90
4207;DHT22;2117;47.972;7.830;2023-07-16T07:19:05;19.40;99.90
4207;DHT22;2117;47.972;7.830;2023-07-16T07:21:31;19.40;99.90
4207;DHT22;2117;47.972;7.830;2023-07-16T07:23:56;19.40;99.90
4207;DHT22;2117;47.972;7.830;2023-07-16T07:26:22;19.40;99.90
4207;DHT22;2117;47.972;7.830;2023-07-16T07:28:48;19.30;99.90
4207;DHT22;2117;47.972;7.830;2023-07-16T07:31:13;19.30;99.90
4207;DHT22;2117;47.972;7.830;2023-07-16T07:33:39;19.40;99.90
4207;DHT22;2117;47.972;7.830;2023-07-16T07:36:05;19.50;99.90
4207;DHT22;2117;47.972;7.830;2023-07-16T07:38:30;19.50;99.90
4207;DHT22;2117;47.972;7.830;2023-07-16T07:40:56;19.50;99.90
4207;DHT22;2117;47.972;7.830;2023-07-16T07:43:21;19.50;99.90
4207;DHT22;2117;47.972;7.830;2023-07-16T07:45:47;19.60;99.90
4207;DHT22;2117;47.972;7.830;2023-07-16T07:48:12;19.70;99.90
4207;DHT22;2117;47.972;7.830;2023-07-16T07:50:38;19.80;99.90
4207;DHT22;2117;47.972;7.830;2023-07-16T07:53:04;19.90;99.90
4207;DHT22;2117;47.972;7.830;2023-07-16T07:55:30;19.90;99.90
4207;DHT22;2117;47.972;7.830;2023-07-16T07:57:55;19.90;99.90
4207;DHT22;2117;47.972;7.830;2023-07-16T08:00:21;20.00;99.90
4207;DHT22;2117;47.972;7.830;2023-07-16T08:02:47;19.90;99.90
4207;DHT22;2117;47.972;7.830;2023-07-16T08:05:12;20.00;99.90
4207;DHT22;2117;47.972;7.830;2023-07-16T08:07:38;20.10;99.90
4207;DHT22;2117;47.972;7.830;2023-07-16T08:10:04;20.30;99.90
4207;DHT22;2117;47.972;7.830;2023-07-16T08:12:29;20.40;99.90
4207;DHT22;2117;47.972;7.830;2023-07-16T08:14:56;20.40;99.90
4207;DHT22;2117;47.972;7.830;2023-07-16T08:17:22;20.50;99.90
4207;DHT22;2117;47.972;7.830;2023-07-16T08:19:47;20.60;99.90
4207;DHT22;2117;47.972;7.830;2023-07-16T08:22:13;20.70;99.90
4207;DHT22;2117;47.972;7.830;2023-07-16T08:24:38;20.70;99.90
4207;DHT22;2117;47.972;7.830;2023-07-16T08:27:04;20.60;99.90
4207;DHT22;2117;47.972;7.830;2023-07-16T08:29:30;20.60;99.90
4207;DHT22;2117;47.972;7.830;2023-07-16T08:31:55;20.50;99.90
4207;DHT22;2117;47.972;7.830;2023-07-16T08:34:21;20.60;99.90
4207;DHT22;2117;47.972;7.830;2023-07-16T08:36:47;20.60;99.90
4207;DHT22;2117;47.972;7.830;2023-07-16T08:39:12;20.60;99.90
4207;DHT22;2117;47.972;7.830;2023-07-16T08:41:39;20.60;99.90
4207;DHT22;2117;47.972;7.830;2023-07-16T08:44:05;20.70;99.90
4207;DHT22;2117;47.972;7.830;2023-07-16T08:46:31;20.70;99.90
4207;DHT22;2117;47.972;7.830;2023-07-16T08:48:57;20.80;99.90
4207;DHT22;2117;47.972;7.830;2023-07-16T08:51:23;20.80;99.90
4207;DHT22;2117;47.972;7.830;2023-07-16T08:53:50;20.90;99.90
4207;DHT22;2117;47.972;7.830;2023-07-16T08:56:16;21.00;99.90
4207;DHT22;2117;47.972;7.830;2023-07-16T08:58:43;21.10;99.90
4207;DHT22;2117;47.972;7.830;2023-07-16T09:01:10;21.00;99.90
4207;DHT22;2117;47.972;7.830;2023-07-16T09:03:38;21.10;99.90
4207;DHT22;2117;47.972;7.830;2023-07-16T09:06:04;21.10;99.90
4207;DHT22;2117;47.972;7.830;2023-07-16T09:08:30;21.30;99.90
4207;DHT22;2117;47.972;7.830;2023-07-16T09:10:56;21.40;99.90
4207;DHT22;2117;47.972;7.830;2023-07-16T09:13:25;21.40;99.90
4207;DHT22;2117;47.972;7.830;2023-07-16T09:15:56;21.50;99.90
4207;DHT22;2117;47.972;7.830;2023-07-16T09:18:24;21.50;99.90
4207;DHT22;2117;47.972;7.830;2023-07-16T09:21:00;21.50;99.90
4207;DHT22;2117;47.972;7.830;2023-07-16T09:23:30;21.50;99.90
4207;DHT22;2117;47.972;7.830;2023-07-16T09:25:56;21.60;99.90
4207;DHT22;2117;47.972;7.830;2023-07-16T09:28:22;21.70;99.90
4207;DHT22;2117;47.972;7.830;2023-07-16T09:30:48;21.80;99.90
4207;DHT22;2117;47.972;7.830;2023-07-16T09:33:19;21.80;99.90
4207;DHT22;2117;47.972;7.830;2023-07-16T09:35:48;21.90;99.90
4207;DHT22;2117;47.972;7.830;2023-07-16T09:38:13;21.90;99.90
4207;DHT22;2117;47.972;7.830;2023-07-16T09:40:40;21.80;99.90
4207;DHT22;2117;47.972;7.830;2023-07-16T09:43:09;21.90;99.90
4207;DHT22;2117;47.972;7.830;2023-07-16T09:45:35;22.00;99.90
4207;DHT22;2117;47.972;7.830;2023-07-16T09:48:02;22.00;99.90
4207;DHT22;2117;47.972;7.830;2023-07-16T09:50:29;22.30;99.90
4207;DHT22;2117;47.972;7.830;2023-07-16T09:52:56;22.30;99.90
4207;DHT22;2117;47.972;7.830;2023-07-16T09:55:23;22.40;99.90
4207;DHT22;2117;47.972;7.830;2023-07-16T09:57:51;22.50;99.90
4207;DHT22;2117;47.972;7.830;2023-07-16T10:00:18;22.80;99.90
4207;DHT22;2117;47.972;7.830;2023-07-16T10:02:46;22.80;99.90
4207;DHT22;2117;47.972;7.830;2023-07-16T10:05:34;22.80;99.90
4207;DHT22;2117;47.972;7.830;2023-07-16T10:08:00;22.80;99.90
4207;DHT22;2117;47.972;7.830;2023-07-16T10:10:42;22.60;99.90
4207;DHT22;2117;47.972;7.830;2023-07-16T10:13:10;22.60;99.90
4207;DHT22;2117;47.972;7.830;2023-07-16T10:15:36;22.60;99.90
4207;DHT22;2117;47.972;7.830;2023-07-16T10:18:02;22.60;99.90
4207;DHT22;2117;47.972;7.830;2023-07-16T10:20:37;22.50;99.90
4207;DHT22;2117;47.972;7.830;2023-07-16T10:23:15;22.50;99.90
4207;DHT22;2117;47.972;7.830;2023-07-16T10:26:00;22.70;99.90
4207;DHT22;2117;47.972;7.830;2023-07-16T10:28:26;22.90;99.90
4207;DHT22;2117;47.972;7.830;2023-07-16T10:33:18;23.00;99.90
4207;DHT22;2117;47.972;7.830;2023-07-16T10:35:45;23.00;99.90
4207;DHT22;2117;47.972;7.830;2023-07-16T10:38:11;23.00;99.90
4207;DHT22;2117;47.972;7.830;2023-07-16T10:40:41;23.00;99.90
4207;DHT22;2117;47.972;7.830;2023-07-16T10:43:07;22.90;99.90
4207;DHT22;2117;47.972;7.830;2023-07-16T10:45:33;23.00;99.90
4207;DHT22;2117;47.972;7.830;2023-07-16T10:47:59;23.10;99.90
4207;DHT22;2117;47.972;7.830;2023-07-16T10:50:24;23.10;99.90
4207;DHT22;2117;47.972;7.830;2023-07-16T10:52:54;23.00;99.90
4207;DHT22;2117;47.972;7.830;2023-07-16T10:55:20;23.00;99.90
4207;DHT22;2117;47.972;7.830;2023-07-16T10:57:49;22.90;99.90
4207;DHT22;2117;47.972;7.830;2023-07-16T11:00:17;23.20;99.90
4207;DHT22;2117;47.972;7.830;2023-07-16T11:02:43;23.20;99.90
4207;DHT22;2117;47.972;7.830;2023-07-16T11:05:13;23.50;99.90
4207;DHT22;2117;47.972;7.830;2023-07-16T11:07:43;24.00;99.90
4207;DHT22;2117;47.972;7.830;2023-07-16T11:10:09;24.20;99.90
4207;DHT22;2117;47.972;7.830;2023-07-16T11:12:35;24.40;99.90
4207;DHT22;2117;47.972;7.830;2023-07-16T11:15:00;24.30;99.90
4207;DHT22;2117;47.972;7.830;2023-07-16T11:17:26;24.20;99.90
4207;DHT22;2117;47.972;7.830;2023-07-16T11:19:52;24.10;99.90
4207;DHT22;2117;47.972;7.830;2023-07-16T11:22:19;24.20;99.90
4207;DHT22;2117;47.972;7.830;2023-07-16T11:24:46;24.50;99.90
4207;DHT22;2117;47.972;7.830;2023-07-16T11:27:14;24.80;99.90
4207;DHT22;2117;47.972;7.830;2023-07-16T11:29:45;25.10;99.90
4207;DHT22;2117;47.972;7.830;2023-07-16T11:32:11;25.30;99.90
4207;DHT22;2117;47.972;7.830;2023-07-16T11:34:37;25.60;99.90
4207;DHT22;2117;47.972;7.830;2023-07-16T11:37:11;25.60;99.90
4207;DHT22;2117;47.972;7.830;2023-07-16T11:39:37;25.60;99.90
4207;DHT22;2117;47.972;7.830;2023-07-16T11:42:04;26.10;99.90
4207;DHT22;2117;47.972;7.830;2023-07-16T11:44:33;26.70;99.90
4207;DHT22;2117;47.972;7.830;2023-07-16T11:47:00;26.30;99.90
4207;DHT22;2117;47.972;7.830;2023-07-16T11:49:25;26.20;99.90
4207;DHT22;2117;47.972;7.830;2023-07-16T11:51:51;26.00;99.90
4207;DHT22;2117;47.972;7.830;2023-07-16T11:54:17;26.10;99.90
4207;DHT22;2117;47.972;7.830;2023-07-16T11:56:42;25.80;99.90
4207;DHT22;2117;47.972;7.830;2023-07-16T11:59:08;26.10;99.90
4207;DHT22;2117;47.972;7.830;2023-07-16T12:01:33;26.20;99.90
4207;DHT22;2117;47.972;7.830;2023-07-16T12:03:59;26.50;99.90
4207;DHT22;2117;47.972;7.830;2023-07-16T12:06:24;26.60;99.90
4207;DHT22;2117;47.972;7.830;2023-07-16T12:08:50;26.20;99.90
4207;DHT22;2117;47.972;7.830;2023-07-16T12:11:16;26.50;99.90
4207;DHT22;2117;47.972;7.830;2023-07-16T12:13:41;26.60;99.90
4207;DHT22;2117;47.972;7.830;2023-07-16T12:16:07;26.80;99.90
4207;DHT22;2117;47.972;7.830;2023-07-16T12:18:32;27.20;99.90
4207;DHT22;2117;47.972;7.830;2023-07-16T12:20:58;27.00;99.90
4207;DHT22;2117;47.972;7.830;2023-07-16T12:23:24;26.90;99.90
4207;DHT22;2117;47.972;7.830;2023-07-16T12:25:50;27.00;99.90
4207;DHT22;2117;47.972;7.830;2023-07-16T12:30:41;26.60;99.90
4207;DHT22;2117;47.972;7.830;2023-07-16T12:33:07;26.50;99.90
4207;DHT22;2117;47.972;7.830;2023-07-16T12:35:33;26.60;99.90
4207;DHT22;2117;47.972;7.830;2023-07-16T12:37:58;26.40;99.90
4207;DHT22;2117;47.972;7.830;2023-07-16T12:40:25;26.20;99.90
4207;DHT22;2117;47.972;7.830;2023-07-16T12:42:50;26.20;99.90
4207;DHT22;2117;47.972;7.830;2023-07-16T12:45:16;26.40;99.90
4207;DHT22;2117;47.972;7.830;2023-07-16T12:47:41;26.80;99.90
4207;DHT22;2117;47.972;7.830;2023-07-16T12:50:07;27.00;99.90
4207;DHT22;2117;47.972;7.830;2023-07-16T12:52:33;27.60;99.90
4207;DHT22;2117;47.972;7.830;2023-07-16T12:54:59;28.10;99.90
4207;DHT22;2117;47.972;7.830;2023-07-16T12:57:24;28.40;99.90
4207;DHT22;2117;47.972;7.830;2023-07-16T12:59:50;28.60;99.50
4207;DHT22;2117;47.972;7.830;2023-07-16T13:02:15;28.90;99.90
4207;DHT22;2117;47.972;7.830;2023-07-16T13:04:41;29.20;98.70
4207;DHT22;2117;47.972;7.830;2023-07-16T13:07:06;29.50;98.30
4207;DHT22;2117;47.972;7.830;2023-07-16T13:09:32;29.70;98.20
4207;DHT22;2117;47.972;7.830;2023-07-16T13:11:58;29.40;97.30
4207;DHT22;2117;47.972;7.830;2023-07-16T13:14:23;29.20;97.00
4207;DHT22;2117;47.972;7.830;2023-07-16T13:16:49;29.40;96.80
4207;DHT22;2117;47.972;7.830;2023-07-16T13:19:14;29.70;97.60
4207;DHT22;2117;47.972;7.830;2023-07-16T13:21:40;30.10;97.90
4207;DHT22;2117;47.972;7.830;2023-07-16T13:24:05;30.20;96.80
4207;DHT22;2117;47.972;7.830;2023-07-16T13:26:31;30.30;95.60
4207;DHT22;2117;47.972;7.830;2023-07-16T13:28:56;30.40;94.90
4207;DHT22;2117;47.972;7.830;2023-07-16T13:31:22;30.40;93.40
4207;DHT22;2117;47.972;7.830;2023-07-16T13:33:48;30.30;94.00
4207;DHT22;2117;47.972;7.830;2023-07-16T13:36:13;30.00;94.40
4207;DHT22;2117;47.972;7.830;2023-07-16T13:38:39;30.20;93.90
4207;DHT22;2117;47.972;7.830;2023-07-16T13:41:04;30.80;94.40
4207;DHT22;2117;47.972;7.830;2023-07-16T13:43:30;30.90;94.20
4207;DHT22;2117;47.972;7.830;2023-07-16T13:45:55;30.80;91.50
4207;DHT22;2117;47.972;7.830;2023-07-16T13:48:21;30.60;90.80
4207;DHT22;2117;47.972;7.830;2023-07-16T13:50:47;30.80;90.90
4207;DHT22;2117;47.972;7.830;2023-07-16T13:53:12;30.90;90.70
4207;DHT22;2117;47.972;7.830;2023-07-16T13:55:38;31.00;90.20
4207;DHT22;2117;47.972;7.830;2023-07-16T13:58:03;31.20;89.40
4207;DHT22;2117;47.972;7.830;2023-07-16T14:00:29;31.20;88.30
4207;DHT22;2117;47.972;7.830;2023-07-16T14:02:54;31.40;90.00
4207;DHT22;2117;47.972;7.830;2023-07-16T14:05:20;31.50;87.70
4207;DHT22;2117;47.972;7.830;2023-07-16T14:07:46;31.60;87.00
4207;DHT22;2117;47.972;7.830;2023-07-16T14:10:12;31.70;84.70
4207;DHT22;2117;47.972;7.830;2023-07-16T14:12:38;31.70;85.40
4207;DHT22;2117;47.972;7.830;2023-07-16T14:15:04;31.70;86.10
4207;DHT22;2117;47.972;7.830;2023-07-16T14:17:29;31.70;85.50
4207;DHT22;2117;47.972;7.830;2023-07-16T14:19:55;31.70;85.20
4207;DHT22;2117;47.972;7.830;2023-07-16T14:22:20;31.90;85.50
4207;DHT22;2117;47.972;7.830;2023-07-16T14:24:49;32.30;87.80
4207;DHT22;2117;47.972;7.830;2023-07-16T14:27:16;32.90;86.70
4207;DHT22;2117;47.972;7.830;2023-07-16T14:29:44;33.80;83.10
4207;DHT22;2117;47.972;7.830;2023-07-16T14:32:10;34.40;82.70
4207;DHT22;2117;47.972;7.830;2023-07-16T14:34:36;34.60;80.20
4207;DHT22;2117;47.972;7.830;2023-07-16T14:37:01;34.50;78.60
4207;DHT22;2117;47.972;7.830;2023-07-16T14:39:27;34.50;78.30
4207;DHT22;2117;47.972;7.830;2023-07-16T14:41:53;34.40;76.20
4207;DHT22;2117;47.972;7.830;2023-07-16T14:44:18;34.40;76.80
4207;DHT22;2117;47.972;7.830;2023-07-16T14:46:44;34.20;77.80
4207;DHT22;2117;47.972;7.830;2023-07-16T14:49:09;34.40;77.20
4207;DHT22;2117;47.972;7.830;2023-07-16T14:51:35;34.60;76.90
4207;DHT22;2117;47.972;7.830;2023-07-16T14:54:08;35.00;77.60
4207;DHT22;2117;47.972;7.830;2023-07-16T14:56:34;35.00;76.00
4207;DHT22;2117;47.972;7.830;2023-07-16T14:59:00;35.40;75.20
4207;DHT22;2117;47.972;7.830;2023-07-16T15:01:25;35.40;75.00
4207;DHT22;2117;47.972;7.830;2023-07-16T15:03:51;35.00;74.00
4207;DHT22;2117;47.972;7.830;2023-07-16T15:06:16;34.80;74.50
4207;DHT22;2117;47.972;7.830;2023-07-16T15:08:42;34.90;75.50
4207;DHT22;2117;47.972;7.830;2023-07-16T15:11:08;35.20;76.90
4207;DHT22;2117;47.972;7.830;2023-07-16T15:13:33;35.30;73.40
4207;DHT22;2117;47.972;7.830;2023-07-16T15:15:59;35.20;73.80
4207;DHT22;2117;47.972;7.830;2023-07-16T15:18:25;35.50;74.20
4207;DHT22;2117;47.972;7.830;2023-07-16T15:21:01;35.30;72.40
4207;DHT22;2117;47.972;7.830;2023-07-16T15:23:28;35.30;71.80
4207;DHT22;2117;47.972;7.830;2023-07-16T15:25:55;35.10;72.90
4207;DHT22;2117;47.972;7.830;2023-07-16T15:28:25;35.10;73.70
4207;DHT22;2117;47.972;7.830;2023-07-16T15:30:51;35.20;72.30
4207;DHT22;2117;47.972;7.830;2023-07-16T15:33:16;35.00;73.40
4207;DHT22;2117;47.972;7.830;2023-07-16T15:35:42;34.80;72.20
4207;DHT22;2117;47.972;7.830;2023-07-16T15:38:07;35.10;73.50
4207;DHT22;2117;47.972;7.830;2023-07-16T15:40:34;35.30;73.30
4207;DHT22;2117;47.972;7.830;2023-07-16T15:43:00;35.90;71.80
4207;DHT22;2117;47.972;7.830;2023-07-16T15:45:25;36.20;71.00
4207;DHT22;2117;47.972;7.830;2023-07-16T15:47:51;36.10;69.70
4207;DHT22;2117;47.972;7.830;2023-07-16T15:50:23;36.40;69.00
4207;DHT22;2117;47.972;7.830;2023-07-16T15:52:48;36.50;67.50
4207;DHT22;2117;47.972;7.830;2023-07-16T15:55:14;36.50;66.80
4207;DHT22;2117;47.972;7.830;2023-07-16T15:57:40;36.60;65.60
4207;DHT22;2117;47.972;7.830;2023-07-16T16:00:07;36.20;67.10
4207;DHT22;2117;47.972;7.830;2023-07-16T16:02:43;36.30;66.10
4207;DHT22;2117;47.972;7.830;2023-07-16T16:05:09;36.30;67.40
4207;DHT22;2117;47.972;7.830;2023-07-16T16:07:35;36.60;67.10
4207;DHT22;2117;47.972;7.830;2023-07-16T16:10:02;36.50;66.30
4207;DHT22;2117;47.972;7.830;2023-07-16T16:12:27;36.20;67.30
4207;DHT22;2117;47.972;7.830;2023-07-16T16:14:53;35.80;67.70
4207;DHT22;2117;47.972;7.830;2023-07-16T16:17:20;35.60;68.20
4207;DHT22;2117;47.972;7.830;2023-07-16T16:19:46;35.40;68.50
4207;DHT22;2117;47.972;7.830;2023-07-16T16:22:11;35.00;68.70
4207;DHT22;2117;47.972;7.830;2023-07-16T16:24:37;34.60;69.20
4207;DHT22;2117;47.972;7.830;2023-07-16T16:27:03;33.80;69.50
4207;DHT22;2117;47.972;7.830;2023-07-16T16:29:29;33.20;70.40
4207;DHT22;2117;47.972;7.830;2023-07-16T16:31:54;31.80;72.60
4207;DHT22;2117;47.972;7.830;2023-07-16T16:34:20;31.80;73.40
4207;DHT22;2117;47.972;7.830;2023-07-16T16:36:46;31.10;74.90
4207;DHT22;2117;47.972;7.830;2023-07-16T16:39:11;31.00;75.90
4207;DHT22;2117;47.972;7.830;2023-07-16T16:41:37;30.50;77.00
4207;DHT22;2117;47.972;7.830;2023-07-16T16:44:02;30.30;77.20
4207;DHT22;2117;47.972;7.830;2023-07-16T16:46:29;30.00;78.20
4207;DHT22;2117;47.972;7.830;2023-07-16T16:48:54;29.70;78.80
4207;DHT22;2117;47.972;7.830;2023-07-16T16:51:20;29.50;78.60
4207;DHT22;2117;47.972;7.830;2023-07-16T16:53:46;29.30;80.60
4207;DHT22;2117;47.972;7.830;2023-07-16T16:56:11;28.90;80.60
4207;DHT22;2117;47.972;7.830;2023-07-16T16:58:37;28.60;81.30
4207;DHT22;2117;47.972;7.830;2023-07-16T17:01:02;28.40;82.20
4207;DHT22;2117;47.972;7.830;2023-07-16T17:03:28;28.20;82.20
4207;DHT22;2117;47.972;7.830;2023-07-16T17:05:54;28.10;82.80
4207;DHT22;2117;47.972;7.830;2023-07-16T17:08:22;28.00;83.90
4207;DHT22;2117;47.972;7.830;2023-07-16T17:10:48;27.80;84.10